createdAt,value
2022-12-13T00:01:23.790Z,28.73
2022-12-13T00:03:53.676Z,27.23
2022-12-13T00:06:21.538Z,24.70
2022-12-13T00:08:49.182Z,26.90
2022-12-13T00:11:17.517Z,26.10
2022-12-13T00:13:46.973Z,24.77
2022-12-13T00:16:16.367Z,27.60
2022-12-13T00:18:44.284Z,25.97
2022-12-13T00:21:14.220Z,23.80
2022-12-13T00:23:42.033Z,21.03
2022-12-13T00:26:13.248Z,23.40
2022-12-13T00:28:41.413Z,22.97
2022-12-13T00:31:52.989Z,23.53
2022-12-13T00:33:57.190Z,25.93
2022-12-13T00:36:25.326Z,27.07
2022-12-13T00:39:00.684Z,20.90
2022-12-13T00:41:30.268Z,26.40
2022-12-13T00:43:58.894Z,21.50
2022-12-13T00:46:28.003Z,22.73
2022-12-13T00:48:57.572Z,18.07
2022-12-13T00:51:26.180Z,23.50
2022-12-13T00:53:56.090Z,23.30
2022-12-13T00:56:25.649Z,26.13
2022-12-13T00:58:54.151Z,24.67
2022-12-13T01:01:24.708Z,18.47
2022-12-13T01:03:54.233Z,21.37
2022-12-13T01:06:24.771Z,24.50
2022-12-13T01:08:52.465Z,28.87
2022-12-13T01:11:20.566Z,29.37
2022-12-13T01:13:49.433Z,23.60
2022-12-13T01:16:18.643Z,24.53
2022-12-13T01:18:46.586Z,21.77
2022-12-13T01:21:15.998Z,24.27
2022-12-13T01:23:44.381Z,19.47
2022-12-13T01:26:13.657Z,21.47
2022-12-13T01:28:41.762Z,21.83
2022-12-13T01:31:10.853Z,24.93
2022-12-13T01:33:38.494Z,24.20
2022-12-13T01:36:07.196Z,25.27
2022-12-13T01:38:37.978Z,25.97
2022-12-13T01:41:16.976Z,26.95
2022-12-13T01:43:48.633Z,24.47
2022-12-13T01:46:17.921Z,24.83
2022-12-13T01:48:57.880Z,24.13
2022-12-13T01:51:28.316Z,26.23
2022-12-13T01:53:58.172Z,25.30
2022-12-13T01:56:29.310Z,25.80
2022-12-13T01:58:57.317Z,29.70
2022-12-13T02:01:25.283Z,28.40
2022-12-13T02:03:52.968Z,24.27
2022-12-13T02:06:24.195Z,21.67
2022-12-13T02:08:51.811Z,22.23
2022-12-13T02:11:19.716Z,25.37
2022-12-13T02:13:47.373Z,27.17
2022-12-13T02:16:34.010Z,28.43
2022-12-13T02:19:01.532Z,29.07
2022-12-13T02:21:36.779Z,26.00
2022-12-13T02:24:16.658Z,29.33
2022-12-13T02:26:44.582Z,24.83
2022-12-13T02:29:30.949Z,25.97
2022-12-13T02:32:00.669Z,28.63
2022-12-13T02:34:34.235Z,26.40
2022-12-13T02:37:05.157Z,25.73
2022-12-13T02:39:52.160Z,27.77
2022-12-13T02:42:26.206Z,23.27
2022-12-13T02:45:04.203Z,29.90
2022-12-13T02:47:32.630Z,22.33
2022-12-13T02:50:03.010Z,25.03
2022-12-13T02:52:32.381Z,24.90
2022-12-13T02:55:00.067Z,24.50
2022-12-13T02:57:32.605Z,27.97
2022-12-13T03:00:02.559Z,24.13
2022-12-13T03:02:33.295Z,23.67
2022-12-13T03:05:39.001Z,21.97
2022-12-13T03:08:25.163Z,23.10
2022-12-13T03:11:04.665Z,26.87
2022-12-13T03:13:51.713Z,22.03
2022-12-13T03:16:39.529Z,26.37
2022-12-13T03:19:09.077Z,22.70
2022-12-13T03:21:45.698Z,22.80
2022-12-13T03:24:20.008Z,25.10
2022-12-13T03:26:48.827Z,24.03
2022-12-13T03:29:23.654Z,26.10
2022-12-13T03:31:52.408Z,25.93
2022-12-13T03:34:22.448Z,23.40
2022-12-13T03:36:51.223Z,26.70
2022-12-13T03:39:19.735Z,27.10
2022-12-13T03:41:47.467Z,26.63
2022-12-13T03:44:15.352Z,21.67
2022-12-13T03:46:43.126Z,25.50
2022-12-13T03:49:15.334Z,25.13
2022-12-13T03:51:44.921Z,22.40
2022-12-13T03:54:12.900Z,22.37
2022-12-13T03:56:40.377Z,29.80
2022-12-13T03:59:08.474Z,36.03
2022-12-13T04:01:36.071Z,23.60
2022-12-13T04:04:03.923Z,31.17
2022-12-13T04:06:33.255Z,21.70
2022-12-13T04:09:02.391Z,29.80
2022-12-13T04:11:48.641Z,22.43
2022-12-13T04:14:21.691Z,23.00
2022-12-13T04:16:51.546Z,27.03
2022-12-13T04:19:22.758Z,26.83
2022-12-13T04:24:19.494Z,43.30
2022-12-13T04:26:47.102Z,47.13
2022-12-13T04:29:14.980Z,31.13
2022-12-13T04:31:42.534Z,43.97
2022-12-13T04:34:10.386Z,43.60
2022-12-13T04:36:38.054Z,33.80
2022-12-13T04:39:21.999Z,35.60
2022-12-13T04:41:51.600Z,40.60
2022-12-13T04:44:28.277Z,50.70
2022-12-13T04:47:00.953Z,41.57
2022-12-13T04:49:32.612Z,53.85
2022-12-13T04:52:01.507Z,283.43
2022-12-13T04:54:36.231Z,91.33
2022-12-13T04:57:06.567Z,75.73
2022-12-13T04:59:34.504Z,46.10
2022-12-13T05:02:02.167Z,37.03
2022-12-13T05:04:32.955Z,44.27
2022-12-13T05:07:01.331Z,63.10
2022-12-13T05:09:29.261Z,43.97
2022-12-13T05:12:01.666Z,35.60
2022-12-13T05:14:33.015Z,58.27
2022-12-13T05:17:01.351Z,43.63
2022-12-13T05:19:31.141Z,42.50
2022-12-13T05:22:01.244Z,38.83
2022-12-13T05:24:31.175Z,35.57
2022-12-13T05:26:58.996Z,31.20
2022-12-13T05:29:27.912Z,37.37
2022-12-13T05:31:55.718Z,36.27
2022-12-13T05:34:23.625Z,25.60
2022-12-13T05:36:51.166Z,30.27
2022-12-13T05:39:28.568Z,34.70
2022-12-13T05:42:01.290Z,30.47
2022-12-13T05:44:34.150Z,28.17
2022-12-13T05:47:02.893Z,34.00
2022-12-13T05:49:32.099Z,34.13
2022-12-13T05:51:59.880Z,34.97
2022-12-13T05:54:27.917Z,35.77
2022-12-13T05:56:55.475Z,38.50
2022-12-13T05:59:23.391Z,496.60
2022-12-13T06:01:51.011Z,379.67
2022-12-13T06:04:22.564Z,275.70
2022-12-13T06:06:51.583Z,134.40
2022-12-13T06:09:19.976Z,59.63
2022-12-13T06:11:48.230Z,57.80
2022-12-13T06:14:21.464Z,43.93
2022-12-13T06:16:49.733Z,47.00
2022-12-13T06:19:17.541Z,85.07
2022-12-13T06:21:46.459Z,38.67
2022-12-13T06:24:15.745Z,42.33
2022-12-13T06:26:45.060Z,66.80
2022-12-13T06:29:22.781Z,59.70
2022-12-13T06:32:02.443Z,30.67
2022-12-13T06:34:35.892Z,39.03
2022-12-13T06:37:07.943Z,31.30
2022-12-13T06:39:36.926Z,32.13
2022-12-13T06:42:06.315Z,28.33
2022-12-13T06:44:35.217Z,33.77
2022-12-13T06:47:11.626Z,32.47
2022-12-13T06:49:43.180Z,33.93
2022-12-13T06:52:12.750Z,38.03
2022-12-13T06:54:41.414Z,38.33
2022-12-13T06:57:09.128Z,32.40
2022-12-13T06:59:37.069Z,30.03
2022-12-13T07:02:06.353Z,33.20
2022-12-13T07:04:52.247Z,32.33
2022-12-13T07:07:19.770Z,26.77
2022-12-13T07:09:47.595Z,30.83
2022-12-13T07:12:15.240Z,33.60
2022-12-13T07:14:43.350Z,33.43
2022-12-13T07:17:11.126Z,27.40
2022-12-13T07:19:39.041Z,27.63
2022-12-13T07:22:06.661Z,28.37
2022-12-13T07:24:37.624Z,32.13
2022-12-13T07:27:05.494Z,30.00
2022-12-13T07:29:33.377Z,33.27
2022-12-13T07:32:02.059Z,30.90
2022-12-13T07:34:31.242Z,31.57
2022-12-13T07:36:58.881Z,33.40
2022-12-13T07:39:26.838Z,31.83
2022-12-13T07:41:55.997Z,31.57
2022-12-13T07:44:24.705Z,33.70
2022-12-13T07:46:52.889Z,33.27
2022-12-13T07:49:21.008Z,32.93
2022-12-13T07:51:49.114Z,38.20
2022-12-13T07:54:17.067Z,37.37
2022-12-13T07:56:44.774Z,34.13
2022-12-13T07:59:14.113Z,31.70
2022-12-13T08:01:41.665Z,30.00
2022-12-13T08:04:10.481Z,29.20
2022-12-13T08:06:38.619Z,26.97
2022-12-13T08:09:06.446Z,28.90
2022-12-13T08:11:34.570Z,30.43
2022-12-13T08:14:02.455Z,31.53
2022-12-13T08:16:30.609Z,33.97
2022-12-13T08:19:02.527Z,31.53
2022-12-13T08:21:54.665Z,26.13
2022-12-13T08:24:24.820Z,24.67
2022-12-13T08:26:55.119Z,23.67
2022-12-13T08:29:34.648Z,25.57
2022-12-13T08:32:04.833Z,27.10
2022-12-13T08:34:32.798Z,22.35
2022-12-13T08:37:02.417Z,23.20
2022-12-13T08:39:36.128Z,27.25
2022-12-13T08:42:19.256Z,28.55
2022-12-13T08:44:52.847Z,24.13
2022-12-13T08:47:23.985Z,20.52
2022-12-13T08:50:02.285Z,23.25
2022-12-13T08:52:39.399Z,22.40
2022-12-13T08:55:13.248Z,23.90
2022-12-13T08:57:41.194Z,22.20
2022-12-13T09:00:11.484Z,35.50
2022-12-13T09:02:39.341Z,38.20
2022-12-13T09:05:08.549Z,36.47
2022-12-13T09:07:36.900Z,38.23
2022-12-13T09:10:07.229Z,39.90
2022-12-13T09:13:01.873Z,36.93
2022-12-13T09:15:34.042Z,34.77
2022-12-13T09:18:04.221Z,36.60
2022-12-13T09:20:40.817Z,36.27
2022-12-13T09:23:13.630Z,34.47
2022-12-13T09:26:05.794Z,32.20
2022-12-13T09:28:34.915Z,31.70
2022-12-13T09:31:09.638Z,33.20
2022-12-13T09:33:41.409Z,37.83
2022-12-13T09:36:11.981Z,38.00
2022-12-13T09:38:39.527Z,37.33
2022-12-13T09:41:43.888Z,34.07
2022-12-13T09:44:32.138Z,34.57
2022-12-13T09:47:14.065Z,28.47
2022-12-13T09:49:44.300Z,28.67
2022-12-13T09:52:22.529Z,27.83
2022-12-13T09:54:55.030Z,30.43
2022-12-13T09:57:32.261Z,33.47
2022-12-13T10:00:02.785Z,33.33
2022-12-13T10:02:43.219Z,38.27
2022-12-13T10:05:22.423Z,29.90
2022-12-13T10:07:53.071Z,27.13
2022-12-13T10:10:21.048Z,27.50
2022-12-13T10:12:53.137Z,27.83
2022-12-13T10:15:21.790Z,33.78
2022-12-13T10:17:55.077Z,29.67
2022-12-13T10:20:26.188Z,37.87
2022-12-13T10:23:30.205Z,32.30
2022-12-13T10:25:47.354Z,37.30
2022-12-13T10:28:25.184Z,29.83
2022-12-13T10:30:53.003Z,35.40
2022-12-13T10:33:26.758Z,32.93
2022-12-13T10:36:08.146Z,25.67
2022-12-13T10:38:37.709Z,25.38
2022-12-13T10:43:38.111Z,26.23
2022-12-13T10:46:18.511Z,25.38
2022-12-13T10:48:53.308Z,29.60
2022-12-13T10:51:21.969Z,40.83
2022-12-13T10:53:57.742Z,31.77
2022-12-13T10:56:40.462Z,35.77
2022-12-13T10:59:17.310Z,44.70
2022-12-13T11:01:45.324Z,59.67
2022-12-13T11:04:39.565Z,52.07
2022-12-13T11:07:23.305Z,57.17
2022-12-13T11:09:52.703Z,53.67
2022-12-13T11:12:22.919Z,53.23
2022-12-13T11:14:54.118Z,46.90
2022-12-13T11:17:23.335Z,46.13
2022-12-13T11:19:55.649Z,46.63
2022-12-13T11:22:27.852Z,47.77
2022-12-13T11:25:03.632Z,45.90
2022-12-13T11:27:31.251Z,48.07
2022-12-13T11:30:21.565Z,48.37
2022-12-13T11:33:13.849Z,45.07
2022-12-13T11:35:54.124Z,50.33
2022-12-13T11:38:36.772Z,58.93
2022-12-13T11:41:11.368Z,47.77
2022-12-13T11:43:50.904Z,47.57
2022-12-13T11:46:21.234Z,31.80
2022-12-13T11:48:53.889Z,33.77
2022-12-13T11:51:32.047Z,35.43
2022-12-13T11:54:01.905Z,35.60
2022-12-13T11:56:33.686Z,36.37
2022-12-13T11:59:27.284Z,37.50
2022-12-13T12:02:05.150Z,25.77
2022-12-13T12:04:44.878Z,29.23
2022-12-13T12:07:33.551Z,25.90
2022-12-13T12:10:10.050Z,31.10
2022-12-13T12:12:38.718Z,33.20
2022-12-13T12:15:15.406Z,31.90
2022-12-13T12:17:44.288Z,30.23
2022-12-13T12:20:23.938Z,43.63
2022-12-13T12:23:07.473Z,30.43
2022-12-13T12:25:44.585Z,30.53
2022-12-13T12:28:24.144Z,32.43
2022-12-13T12:31:09.768Z,25.97
2022-12-13T12:33:47.592Z,25.00
2022-12-13T12:36:33.761Z,38.50
2022-12-13T12:39:14.730Z,51.37
2022-12-13T12:41:45.523Z,37.67
2022-12-13T12:44:33.933Z,25.48
2022-12-13T12:49:56.940Z,18.13
2022-12-13T12:52:38.278Z,22.73
2022-12-13T12:55:15.126Z,19.10
2022-12-13T12:57:48.996Z,16.80
2022-12-13T13:00:18.050Z,17.67
2022-12-13T13:02:50.523Z,19.43
2022-12-13T13:05:28.843Z,19.73
2022-12-13T13:08:10.230Z,33.00
2022-12-13T13:10:49.604Z,40.88
2022-12-13T13:13:33.754Z,28.00
2022-12-13T13:16:02.331Z,22.10
2022-12-13T13:18:49.885Z,29.03
2022-12-13T13:21:23.865Z,26.03
2022-12-13T13:24:12.946Z,31.93
2022-12-13T13:26:45.268Z,23.93
2022-12-13T13:29:27.121Z,24.10
2022-12-13T13:32:05.568Z,23.87
2022-12-13T13:34:36.657Z,25.13
2022-12-13T13:37:25.501Z,23.77
2022-12-13T13:39:55.741Z,23.07
2022-12-13T13:42:25.236Z,22.43
2022-12-13T13:44:52.871Z,27.80
2022-12-13T13:47:20.676Z,27.90
2022-12-13T13:50:07.113Z,28.57
2022-12-13T13:52:53.939Z,34.63
2022-12-13T13:55:36.837Z,41.73
2022-12-13T13:58:24.179Z,41.43
2022-12-13T14:01:14.417Z,51.57
2022-12-13T14:03:45.593Z,56.17
2022-12-13T14:06:16.606Z,58.00
2022-12-13T14:09:01.404Z,53.83
2022-12-13T14:11:34.972Z,47.33
2022-12-13T14:14:22.654Z,48.60
2022-12-13T14:16:56.545Z,59.03
2022-12-13T14:19:45.850Z,58.17
2022-12-13T14:22:33.844Z,69.50
2022-12-13T14:25:08.111Z,56.37
2022-12-13T14:27:40.550Z,50.57
2022-12-13T14:30:27.382Z,48.57
2022-12-13T14:32:57.009Z,41.87
2022-12-13T14:35:29.034Z,51.30
2022-12-13T14:38:19.619Z,45.15
2022-12-13T14:40:52.193Z,62.27
2022-12-13T14:43:27.538Z,58.07
2022-12-13T14:45:57.599Z,59.30
2022-12-13T14:48:27.967Z,58.60
2022-12-13T14:50:57.695Z,73.55
2022-12-13T14:53:37.286Z,54.60
2022-12-13T14:56:08.108Z,61.43
2022-12-13T14:58:37.038Z,77.00
2022-12-13T15:01:06.108Z,85.90
2022-12-13T15:03:35.237Z,84.17
2022-12-13T15:06:04.437Z,81.70
2022-12-13T15:08:34.078Z,114.10
2022-12-13T15:11:06.667Z,108.33
2022-12-13T15:13:51.689Z,75.67
2022-12-13T15:16:28.310Z,71.77
2022-12-13T15:19:29.403Z,87.03
2022-12-13T15:22:15.927Z,102.83
2022-12-13T15:24:48.448Z,276.57
2022-12-13T15:27:22.572Z,102.27
2022-12-13T15:29:50.654Z,97.90
2022-12-13T15:32:22.643Z,94.30
2022-12-13T15:34:51.349Z,89.53
2022-12-13T15:37:45.695Z,89.63
2022-12-13T15:40:15.240Z,119.27
2022-12-13T15:42:46.925Z,155.07
2022-12-13T15:45:23.534Z,138.20
2022-12-13T15:47:52.390Z,170.83
2022-12-13T15:50:32.479Z,166.97
2022-12-13T15:53:02.877Z,157.38
2022-12-13T15:55:35.798Z,134.20
2022-12-13T15:58:03.822Z,163.70
2022-12-13T16:00:34.478Z,287.40
2022-12-13T16:03:08.962Z,157.82
2022-12-13T16:05:41.037Z,385.93
2022-12-13T16:08:19.250Z,164.47
2022-12-13T16:10:48.139Z,265.27
2022-12-13T16:13:26.150Z,165.00
2022-12-13T16:16:00.516Z,202.47
2022-12-13T16:18:45.670Z,136.20
2022-12-13T16:21:14.453Z,155.17
2022-12-13T16:23:48.745Z,371.97
2022-12-13T16:26:22.230Z,332.70
2022-12-13T16:28:51.209Z,155.77
2022-12-13T16:31:24.093Z,148.70
2022-12-13T16:33:52.696Z,184.27
2022-12-13T16:36:20.571Z,211.53
2022-12-13T16:38:48.409Z,243.53
2022-12-13T16:41:16.389Z,235.83
2022-12-13T16:43:51.666Z,310.27
2022-12-13T16:47:11.402Z,271.90
2022-12-13T16:49:26.968Z,274.80
2022-12-13T16:51:55.048Z,207.80
2022-12-13T16:54:23.942Z,206.80
2022-12-13T16:56:52.196Z,245.03
2022-12-13T16:59:22.571Z,382.83
2022-12-13T17:01:51.046Z,441.00
2022-12-13T17:04:21.399Z,241.03
2022-12-13T17:06:50.250Z,216.33
2022-12-13T17:09:18.811Z,219.87
2022-12-13T17:11:46.695Z,220.80
2022-12-13T17:14:15.493Z,202.47
2022-12-13T17:16:43.173Z,215.10
2022-12-13T17:19:14.607Z,212.33
2022-12-13T17:21:42.198Z,210.68
2022-12-13T17:24:28.902Z,197.77
2022-12-13T17:26:56.836Z,186.43
2022-12-13T17:29:25.388Z,213.90
2022-12-13T17:31:53.493Z,204.53
2022-12-13T17:34:21.406Z,170.03
2022-12-13T17:36:49.047Z,216.03
2022-12-13T17:39:17.023Z,383.07
2022-12-13T17:41:54.747Z,287.23
2022-12-13T17:44:24.505Z,199.20
2022-12-13T17:46:54.636Z,248.57
2022-12-13T17:49:23.719Z,158.80
2022-12-13T17:51:53.742Z,165.70
2022-12-13T17:54:23.505Z,185.57
2022-12-13T17:56:51.552Z,264.17
2022-12-13T17:59:19.781Z,273.00
2022-12-13T18:01:47.570Z,314.03
2022-12-13T18:04:15.981Z,345.57
2022-12-13T18:06:44.011Z,298.53
2022-12-13T18:09:13.775Z,254.87
2022-12-13T18:11:41.604Z,376.27
2022-12-13T18:14:09.754Z,748.40
2022-12-13T18:16:57.340Z,361.93
2022-12-13T18:19:30.223Z,270.07
2022-12-13T18:21:58.330Z,200.37
2022-12-13T18:24:26.422Z,195.93
2022-12-13T18:26:55.222Z,207.10
2022-12-13T18:29:23.180Z,189.60
2022-12-13T18:31:51.360Z,198.43
2022-12-13T18:34:19.399Z,190.37
2022-12-13T18:36:47.315Z,190.30
2022-12-13T18:39:15.359Z,226.30
2022-12-13T18:41:43.102Z,259.30
2022-12-13T18:46:58.842Z,186.03
2022-12-13T18:49:26.970Z,176.90
2022-12-13T18:51:55.763Z,179.53
2022-12-13T18:54:24.232Z,151.00
2022-12-13T18:56:52.024Z,127.37
2022-12-13T18:59:20.117Z,114.33
2022-12-13T19:01:47.824Z,99.33
2022-12-13T19:04:35.838Z,290.23
2022-12-13T19:07:03.592Z,314.43
2022-12-13T19:09:32.026Z,261.63
2022-12-13T19:11:59.826Z,224.90
2022-12-13T19:14:28.252Z,219.97
2022-12-13T19:16:56.038Z,231.40
2022-12-13T19:19:25.554Z,241.83
2022-12-13T19:21:53.619Z,497.70
2022-12-13T19:24:21.714Z,288.87
2022-12-13T19:26:50.990Z,239.13
2022-12-13T19:29:19.121Z,199.30
2022-12-13T19:31:46.963Z,349.57
2022-12-13T19:34:15.065Z,377.37
2022-12-13T19:37:06.232Z,307.20
2022-12-13T19:39:35.900Z,348.23
2022-12-13T19:42:03.616Z,305.43
2022-12-13T19:44:31.729Z,193.17
2022-12-13T19:47:00.003Z,394.17
2022-12-13T19:49:28.232Z,218.77
2022-12-13T19:51:56.180Z,259.97
2022-12-13T19:54:26.403Z,246.40
2022-12-13T19:56:54.230Z,197.83
2022-12-13T19:59:22.566Z,202.87
2022-12-13T20:01:50.165Z,350.57
2022-12-13T20:04:37.804Z,423.37
2022-12-13T20:07:05.489Z,359.03
2022-12-13T20:09:33.529Z,544.03
2022-12-13T20:12:01.191Z,531.23
2022-12-13T20:14:29.239Z,648.00
2022-12-13T20:16:58.215Z,291.30
2022-12-13T20:19:27.134Z,339.10
2022-12-13T20:21:57.101Z,272.37
2022-12-13T20:24:25.441Z,181.93
2022-12-13T20:26:53.990Z,1428.70
2022-12-13T20:29:22.992Z,344.67
2022-12-13T20:31:52.740Z,684.97
2022-12-13T20:34:41.021Z,177.63
2022-12-13T20:37:08.724Z,180.70
2022-12-13T20:39:36.753Z,465.23
2022-12-13T20:42:04.366Z,156.13
2022-12-13T20:44:32.487Z,128.13
2022-12-13T20:47:00.178Z,186.23
2022-12-13T20:49:28.000Z,200.40
2022-12-13T20:51:55.720Z,206.73
2022-12-13T20:54:23.574Z,299.73
2022-12-13T20:56:51.209Z,187.53
2022-12-13T20:59:19.134Z,178.03
2022-12-13T21:02:06.896Z,157.07
2022-12-13T21:04:34.836Z,225.60
2022-12-13T21:07:02.738Z,144.27
2022-12-13T21:09:30.523Z,427.17
2022-12-13T21:11:58.049Z,174.43
2022-12-13T21:14:27.372Z,198.80
2022-12-13T21:16:55.071Z,173.07
2022-12-13T21:19:25.229Z,141.67
2022-12-13T21:21:53.505Z,191.17
2022-12-13T21:24:41.964Z,214.97
2022-12-13T21:27:09.620Z,146.80
2022-12-13T21:29:37.666Z,1.63
2022-12-13T21:32:06.115Z,0.80
2022-12-13T21:34:34.138Z,0.87
2022-12-13T21:37:01.625Z,0.97
2022-12-13T21:39:29.699Z,0.60
2022-12-13T21:41:58.146Z,0.80
2022-12-13T21:44:44.755Z,0.70
2022-12-13T21:47:13.332Z,0.47
2022-12-13T21:49:41.839Z,0.40
2022-12-13T21:52:09.497Z,0.60
2022-12-13T21:54:37.389Z,0.30
2022-12-13T21:57:23.497Z,0.20
2022-12-13T21:59:51.425Z,0.30
2022-12-13T22:02:19.696Z,0.40
2022-12-13T22:04:54.176Z,0.30
2022-12-13T22:07:28.600Z,0.20
2022-12-13T22:09:57.216Z,0.20
2022-12-13T22:12:41.403Z,0.20
2022-12-13T22:15:11.121Z,0.10
2022-12-13T22:17:38.738Z,0.13
2022-12-13T22:20:15.576Z,0.10
2022-12-13T22:22:44.249Z,0.10
2022-12-13T22:25:12.976Z,0.13
2022-12-13T22:27:40.550Z,0.10
2022-12-13T22:30:10.359Z,0.10
2022-12-13T22:32:38.005Z,0.00
2022-12-13T22:35:06.109Z,0.10
2022-12-13T22:37:33.787Z,0.03
2022-12-13T22:40:01.804Z,0.00
2022-12-13T22:42:29.434Z,0.07
2022-12-13T22:44:57.414Z,0.10
2022-12-13T22:47:24.965Z,0.10
2022-12-13T22:49:52.814Z,0.10
2022-12-13T22:52:20.326Z,0.20
2022-12-13T22:54:48.235Z,0.00
2022-12-13T22:57:15.815Z,0.00
2022-12-13T22:59:43.785Z,0.10
2022-12-13T23:02:11.459Z,0.00
2022-12-13T23:04:40.650Z,0.10
2022-12-13T23:07:08.227Z,0.10
2022-12-13T23:09:36.123Z,0.10
2022-12-13T23:12:22.310Z,0.10
2022-12-13T23:14:51.332Z,0.07
2022-12-13T23:17:19.206Z,0.10
2022-12-13T23:19:52.846Z,0.10
2022-12-13T23:22:21.962Z,0.00
2022-12-13T23:24:50.589Z,0.00
2022-12-13T23:27:18.498Z,0.00
2022-12-13T23:29:46.495Z,0.00
2022-12-13T23:32:14.276Z,0.03
2022-12-13T23:34:42.137Z,0.00
2022-12-13T23:37:09.689Z,0.10
2022-12-13T23:39:37.644Z,0.00
2022-12-13T23:42:05.400Z,0.07
2022-12-13T23:44:33.284Z,0.00
2022-12-13T23:47:00.874Z,0.00
2022-12-13T23:49:28.850Z,0.07
2022-12-13T23:51:56.423Z,0.00
2022-12-13T23:54:24.344Z,0.00
2022-12-13T23:56:51.949Z,0.10
2022-12-13T23:59:19.842Z,0.00
